N5771J KSGU-KTEX
Flight info
| Callsign | N5771J |
|---|---|
| Flight time | 1h 51m |
| Altitude | 13500 |
| Route | HIVKA2 MATZO PGA DVC HAVWU |
| Aircraft | T210/L-VGD/C |
Departure
| Time | 2026-05-06 02:03 |
|---|---|
| Airport | St George Regional Airport (KSGU) |
Arrival
| Time | 2026-05-06 03:54 |
|---|---|
| Airport | Telluride Regional Airport (KTEX) |
| Time | Latitude | Longitude | Altitude | Speed | Heading |
|---|---|---|---|---|---|
| 2026-05-06 01:54 | 37.04405 | -113.50860 | 2880 ft | 0 kts | 293° |
| 2026-05-06 01:58 | 37.04419 | -113.50876 | 2880 ft | 5 kts | 359° |
| 2026-05-06 01:58 | 37.04425 | -113.50835 | 2881 ft | 7 kts | 111° |
| 2026-05-06 01:59 | 37.04423 | -113.50772 | 2880 ft | 8 kts | 27° |
| 2026-05-06 01:59 | 37.04472 | -113.50743 | 2881 ft | 7 kts | 27° |
| 2026-05-06 01:59 | 37.04516 | -113.50714 | 2882 ft | 7 kts | 26° |
| 2026-05-06 01:59 | 37.04574 | -113.50700 | 2884 ft | 10 kts | 4° |
| 2026-05-06 02:00 | 37.04652 | -113.50693 | 2886 ft | 12 kts | 9° |
| 2026-05-06 02:00 | 37.04737 | -113.50652 | 2887 ft | 14 kts | 25° |
| 2026-05-06 02:00 | 37.04825 | -113.50604 | 2889 ft | 12 kts | 22° |
| 2026-05-06 02:00 | 37.04852 | -113.50549 | 2895 ft | 8 kts | 117° |
| 2026-05-06 02:01 | 37.04830 | -113.50482 | 2890 ft | 9 kts | 111° |
| 2026-05-06 02:01 | 37.04788 | -113.50421 | 2889 ft | 11 kts | 195° |
| 2026-05-06 02:01 | 37.04681 | -113.50482 | 2885 ft | 33 kts | 203° |
| 2026-05-06 02:01 | 37.04352 | -113.50655 | 2879 ft | 67 kts | 204° |
| 2026-05-06 02:02 | 37.03869 | -113.50949 | 2938 ft | 84 kts | 212° |
| 2026-05-06 02:02 | 37.03313 | -113.51265 | 3116 ft | 92 kts | 211° |
| 2026-05-06 02:02 | 37.02671 | -113.51494 | 3367 ft | 104 kts | 198° |
| 2026-05-06 02:02 | 37.01902 | -113.51677 | 3480 ft | 118 kts | 198° |
| 2026-05-06 02:03 | 37.01097 | -113.51921 | 3619 ft | 119 kts | 198° |
| 2026-05-06 02:03 | 37.00304 | -113.52171 | 3762 ft | 115 kts | 201° |
| 2026-05-06 02:03 | 36.99596 | -113.52573 | 3864 ft | 113 kts | 228° |
| 2026-05-06 02:03 | 36.99331 | -113.53463 | 3989 ft | 111 kts | 267° |
| 2026-05-06 02:04 | 36.99682 | -113.54361 | 4076 ft | 126 kts | 314° |
| 2026-05-06 02:04 | 37.00570 | -113.54598 | 4206 ft | 140 kts | 3° |
| 2026-05-06 02:04 | 37.01504 | -113.54369 | 4356 ft | 134 kts | 3° |
| 2026-05-06 02:04 | 37.02424 | -113.54162 | 4517 ft | 135 kts | 4° |
| 2026-05-06 02:05 | 37.03344 | -113.53951 | 4674 ft | 134 kts | 2° |
| 2026-05-06 02:05 | 37.04258 | -113.53743 | 4818 ft | 136 kts | 1° |
| 2026-05-06 02:05 | 37.05192 | -113.53527 | 4967 ft | 137 kts | 4° |
| 2026-05-06 02:05 | 37.06133 | -113.53311 | 5117 ft | 137 kts | 4° |
| 2026-05-06 02:06 | 37.07068 | -113.53096 | 5262 ft | 137 kts | 4° |
| 2026-05-06 02:06 | 37.08005 | -113.52881 | 5412 ft | 136 kts | 5° |
| 2026-05-06 02:06 | 37.08944 | -113.52665 | 5567 ft | 137 kts | 5° |
| 2026-05-06 02:06 | 37.09891 | -113.52447 | 5723 ft | 139 kts | 4° |
| 2026-05-06 02:07 | 37.10843 | -113.52229 | 5884 ft | 139 kts | 5° |
| 2026-05-06 02:07 | 37.11797 | -113.52010 | 6037 ft | 140 kts | 6° |
| 2026-05-06 02:07 | 37.12744 | -113.51713 | 6161 ft | 144 kts | 22° |
| 2026-05-06 02:07 | 37.13411 | -113.50747 | 6285 ft | 150 kts | 58° |
| 2026-05-06 02:08 | 37.13940 | -113.49614 | 6431 ft | 149 kts | 57° |
| 2026-05-06 02:08 | 37.14467 | -113.48516 | 6572 ft | 149 kts | 55° |
| 2026-05-06 02:08 | 37.14996 | -113.47410 | 6715 ft | 149 kts | 56° |
| 2026-05-06 02:08 | 37.15529 | -113.46295 | 6861 ft | 149 kts | 54° |
| 2026-05-06 02:09 | 37.16061 | -113.45180 | 7013 ft | 149 kts | 57° |
| 2026-05-06 02:09 | 37.16594 | -113.44064 | 7154 ft | 149 kts | 55° |
| 2026-05-06 02:09 | 37.17128 | -113.42946 | 7254 ft | 148 kts | 56° |
| 2026-05-06 02:09 | 37.17656 | -113.41840 | 7396 ft | 148 kts | 53° |
| 2026-05-06 02:10 | 37.18183 | -113.40719 | 7545 ft | 149 kts | 55° |
| 2026-05-06 02:10 | 37.18701 | -113.39600 | 7667 ft | 145 kts | 53° |
| 2026-05-06 02:10 | 37.19211 | -113.38511 | 7826 ft | 145 kts | 55° |
| 2026-05-06 02:10 | 37.19723 | -113.37416 | 7975 ft | 146 kts | 55° |
| 2026-05-06 02:11 | 37.20235 | -113.36322 | 8119 ft | 144 kts | 55° |
| 2026-05-06 02:11 | 37.20732 | -113.35250 | 8264 ft | 142 kts | 55° |
| 2026-05-06 02:11 | 37.21235 | -113.34175 | 8419 ft | 144 kts | 56° |
| 2026-05-06 02:11 | 37.21741 | -113.33093 | 8573 ft | 144 kts | 54° |
| 2026-05-06 02:12 | 37.22248 | -113.32008 | 8723 ft | 145 kts | 54° |
| 2026-05-06 02:12 | 37.22760 | -113.30908 | 8889 ft | 147 kts | 54° |
| 2026-05-06 02:12 | 37.23275 | -113.29800 | 9055 ft | 147 kts | 55° |
| 2026-05-06 02:12 | 37.23792 | -113.28691 | 9213 ft | 148 kts | 53° |
| 2026-05-06 02:13 | 37.24312 | -113.27571 | 9369 ft | 148 kts | 56° |
| 2026-05-06 02:13 | 37.24534 | -113.26547 | 9449 ft | 151 kts | 92° |
| 2026-05-06 02:13 | 37.24333 | -113.25257 | 9613 ft | 150 kts | 100° |
| 2026-05-06 02:13 | 37.24121 | -113.23969 | 9771 ft | 152 kts | 99° |
| 2026-05-06 02:14 | 37.23906 | -113.22654 | 9940 ft | 155 kts | 100° |
| 2026-05-06 02:14 | 37.23687 | -113.21326 | 10087 ft | 155 kts | 99° |
| 2026-05-06 02:14 | 37.23468 | -113.20005 | 10219 ft | 154 kts | 98° |
| 2026-05-06 02:14 | 37.23252 | -113.18699 | 10346 ft | 155 kts | 98° |
| 2026-05-06 02:15 | 37.23033 | -113.17376 | 10476 ft | 155 kts | 98° |
| 2026-05-06 02:15 | 37.22815 | -113.16065 | 10607 ft | 152 kts | 98° |
| 2026-05-06 02:15 | 37.22599 | -113.14757 | 10742 ft | 154 kts | 95° |
| 2026-05-06 02:15 | 37.22382 | -113.13438 | 10862 ft | 154 kts | 96° |
| 2026-05-06 02:16 | 37.22162 | -113.12120 | 10994 ft | 156 kts | 95° |
| 2026-05-06 02:16 | 37.21943 | -113.10792 | 11115 ft | 158 kts | 95° |
| 2026-05-06 02:16 | 37.21718 | -113.09440 | 11255 ft | 158 kts | 97° |
| 2026-05-06 02:16 | 37.21492 | -113.08083 | 11380 ft | 159 kts | 97° |
| 2026-05-06 02:17 | 37.21264 | -113.06723 | 11512 ft | 159 kts | 97° |
| 2026-05-06 02:17 | 37.21039 | -113.05362 | 11635 ft | 159 kts | 97° |
| 2026-05-06 02:17 | 37.20812 | -113.03999 | 11769 ft | 159 kts | 97° |
| 2026-05-06 02:17 | 37.20586 | -113.02637 | 11892 ft | 159 kts | 94° |
| 2026-05-06 02:18 | 37.20358 | -113.01278 | 12015 ft | 157 kts | 94° |
| 2026-05-06 02:18 | 37.20134 | -112.99947 | 12139 ft | 155 kts | 97° |
| 2026-05-06 02:18 | 37.19914 | -112.98627 | 12264 ft | 154 kts | 97° |
| 2026-05-06 02:18 | 37.19697 | -112.97325 | 12399 ft | 155 kts | 96° |
| 2026-05-06 02:19 | 37.19476 | -112.95998 | 12522 ft | 154 kts | 93° |
| 2026-05-06 02:19 | 37.19256 | -112.94691 | 12656 ft | 154 kts | 96° |
| 2026-05-06 02:19 | 37.19036 | -112.93374 | 12779 ft | 155 kts | 93° |
| 2026-05-06 02:19 | 37.18815 | -112.92057 | 12908 ft | 154 kts | 93° |
| 2026-05-06 02:20 | 37.18380 | -112.89496 | 13124 ft | 142 kts | 94° |
| 2026-05-06 02:20 | 37.18179 | -112.88288 | 13251 ft | 143 kts | 95° |
| 2026-05-06 02:20 | 37.17975 | -112.87044 | 13387 ft | 148 kts | 95° |
| 2026-05-06 02:21 | 37.17759 | -112.85758 | 13524 ft | 152 kts | 96° |
| 2026-05-06 02:21 | 37.17535 | -112.84420 | 13542 ft | 162 kts | 93° |
| 2026-05-06 02:21 | 37.17297 | -112.83007 | 13541 ft | 169 kts | 94° |
| 2026-05-06 02:21 | 37.17048 | -112.81544 | 13537 ft | 173 kts | 97° |
| 2026-05-06 02:22 | 37.16796 | -112.80058 | 13535 ft | 175 kts | 96° |
| 2026-05-06 02:22 | 37.16544 | -112.78578 | 13532 ft | 171 kts | 96° |
| 2026-05-06 02:22 | 37.16299 | -112.77133 | 13527 ft | 169 kts | 95° |
| 2026-05-06 02:22 | 37.16060 | -112.75721 | 13514 ft | 166 kts | 96° |
| 2026-05-06 02:23 | 37.15818 | -112.74286 | 13511 ft | 165 kts | 95° |
| 2026-05-06 02:23 | 37.15580 | -112.72883 | 13503 ft | 164 kts | 95° |
| 2026-05-06 02:23 | 37.15347 | -112.71498 | 13506 ft | 165 kts | 95° |
| 2026-05-06 02:23 | 37.15108 | -112.70090 | 13497 ft | 165 kts | 95° |
| 2026-05-06 02:24 | 37.14869 | -112.68687 | 13499 ft | 164 kts | 95° |
| 2026-05-06 02:24 | 37.14630 | -112.67282 | 13494 ft | 165 kts | 95° |
| 2026-05-06 02:24 | 37.14391 | -112.65879 | 13488 ft | 164 kts | 95° |
| 2026-05-06 02:24 | 37.14153 | -112.64479 | 13488 ft | 164 kts | 95° |
| 2026-05-06 02:25 | 37.13915 | -112.63080 | 13476 ft | 164 kts | 95° |
| 2026-05-06 02:25 | 37.13679 | -112.61697 | 13474 ft | 164 kts | 95° |
| 2026-05-06 02:25 | 37.13441 | -112.60301 | 13476 ft | 163 kts | 95° |
| 2026-05-06 02:25 | 37.13204 | -112.58916 | 13475 ft | 163 kts | 95° |
| 2026-05-06 02:26 | 37.12967 | -112.57527 | 13480 ft | 162 kts | 95° |
| 2026-05-06 02:26 | 37.12731 | -112.56151 | 13477 ft | 161 kts | 96° |
| 2026-05-06 02:26 | 37.12498 | -112.54784 | 13478 ft | 161 kts | 95° |
| 2026-05-06 02:26 | 37.12263 | -112.53413 | 13478 ft | 161 kts | 95° |
| 2026-05-06 02:27 | 37.12028 | -112.52042 | 13478 ft | 161 kts | 96° |
| 2026-05-06 02:27 | 37.11794 | -112.50676 | 13478 ft | 160 kts | 97° |
| 2026-05-06 02:27 | 37.11559 | -112.49311 | 13479 ft | 160 kts | 97° |
| 2026-05-06 02:27 | 37.11328 | -112.47963 | 13478 ft | 160 kts | 97° |
| 2026-05-06 02:28 | 37.11094 | -112.46599 | 13476 ft | 160 kts | 98° |
| 2026-05-06 02:28 | 37.10859 | -112.45237 | 13474 ft | 161 kts | 94° |
| 2026-05-06 02:28 | 37.10624 | -112.43862 | 13478 ft | 163 kts | 95° |
| 2026-05-06 02:28 | 37.10385 | -112.42474 | 13474 ft | 163 kts | 97° |
| 2026-05-06 02:29 | 37.10145 | -112.41086 | 13479 ft | 163 kts | 97° |
| 2026-05-06 02:29 | 37.09905 | -112.39697 | 13483 ft | 163 kts | 95° |
| 2026-05-06 02:29 | 37.09665 | -112.38307 | 13483 ft | 163 kts | 94° |
| 2026-05-06 02:29 | 37.09424 | -112.36911 | 13485 ft | 164 kts | 97° |
| 2026-05-06 02:30 | 37.09186 | -112.35533 | 13487 ft | 165 kts | 95° |
| 2026-05-06 02:30 | 37.08943 | -112.34127 | 13479 ft | 165 kts | 95° |
| 2026-05-06 02:30 | 37.08699 | -112.32729 | 13498 ft | 162 kts | 95° |
| 2026-05-06 02:30 | 37.08459 | -112.31345 | 13491 ft | 163 kts | 95° |
| 2026-05-06 02:31 | 37.08220 | -112.29957 | 13498 ft | 163 kts | 97° |
| 2026-05-06 02:31 | 37.07980 | -112.28572 | 13495 ft | 162 kts | 96° |
| 2026-05-06 02:31 | 37.07739 | -112.27188 | 13494 ft | 163 kts | 95° |
| 2026-05-06 02:31 | 37.07498 | -112.25796 | 13491 ft | 164 kts | 95° |
| 2026-05-06 02:32 | 37.07255 | -112.24401 | 13489 ft | 164 kts | 95° |
| 2026-05-06 02:32 | 37.07012 | -112.23005 | 13491 ft | 164 kts | 97° |
| 2026-05-06 02:32 | 37.06768 | -112.21606 | 13497 ft | 164 kts | 96° |
| 2026-05-06 02:32 | 37.06525 | -112.20212 | 13497 ft | 164 kts | 97° |
| 2026-05-06 02:33 | 37.06285 | -112.18839 | 13482 ft | 163 kts | 95° |
| 2026-05-06 02:33 | 37.06122 | -112.17904 | 13482 ft | 162 kts | 95° |
| 2026-05-06 02:33 | 37.05563 | -112.14697 | 13477 ft | 162 kts | 96° |
| 2026-05-06 02:34 | 37.05322 | -112.13321 | 13474 ft | 162 kts | 97° |
| 2026-05-06 02:34 | 37.05080 | -112.11941 | 13479 ft | 162 kts | 96° |
| 2026-05-06 02:34 | 37.04838 | -112.10560 | 13482 ft | 163 kts | 95° |
| 2026-05-06 02:34 | 37.04595 | -112.09174 | 13483 ft | 163 kts | 95° |
| 2026-05-06 02:35 | 37.04352 | -112.07786 | 13491 ft | 163 kts | 96° |
| 2026-05-06 02:35 | 37.04108 | -112.06396 | 13460 ft | 164 kts | 95° |
| 2026-05-06 02:35 | 37.03863 | -112.05003 | 13459 ft | 164 kts | 95° |
| 2026-05-06 02:35 | 37.03618 | -112.03609 | 13457 ft | 164 kts | 96° |
| 2026-05-06 02:36 | 37.03372 | -112.02215 | 13449 ft | 164 kts | 95° |
| 2026-05-06 02:36 | 37.03128 | -112.00823 | 13448 ft | 163 kts | 96° |
| 2026-05-06 02:36 | 37.02884 | -111.99439 | 13449 ft | 163 kts | 96° |
| 2026-05-06 02:36 | 37.02642 | -111.98068 | 13447 ft | 163 kts | 96° |
| 2026-05-06 02:37 | 37.02399 | -111.96692 | 13456 ft | 161 kts | 96° |
| 2026-05-06 02:37 | 37.02157 | -111.95324 | 13451 ft | 161 kts | 95° |
| 2026-05-06 02:37 | 37.01916 | -111.93951 | 13453 ft | 162 kts | 97° |
| 2026-05-06 02:37 | 37.01671 | -111.92568 | 13422 ft | 163 kts | 97° |
| 2026-05-06 02:38 | 37.01424 | -111.91178 | 13423 ft | 163 kts | 98° |
| 2026-05-06 02:38 | 37.01178 | -111.89788 | 13427 ft | 164 kts | 96° |
| 2026-05-06 02:38 | 37.00931 | -111.88389 | 13428 ft | 165 kts | 98° |
| 2026-05-06 02:38 | 37.00680 | -111.86981 | 13429 ft | 166 kts | 96° |
| 2026-05-06 02:39 | 37.00431 | -111.85571 | 13424 ft | 166 kts | 96° |
| 2026-05-06 02:39 | 37.00182 | -111.84183 | 13427 ft | 163 kts | 97° |
| 2026-05-06 02:39 | 36.99937 | -111.82797 | 13421 ft | 163 kts | 95° |
| 2026-05-06 02:39 | 36.99692 | -111.81414 | 13420 ft | 163 kts | 97° |
| 2026-05-06 02:40 | 36.99446 | -111.80033 | 13422 ft | 163 kts | 98° |
| 2026-05-06 02:40 | 36.99200 | -111.78647 | 13391 ft | 164 kts | 99° |
| 2026-05-06 02:40 | 36.98950 | -111.77249 | 13395 ft | 166 kts | 99° |
| 2026-05-06 02:40 | 36.98698 | -111.75837 | 13393 ft | 167 kts | 99° |
| 2026-05-06 02:41 | 36.98443 | -111.74409 | 13401 ft | 168 kts | 100° |
| 2026-05-06 02:41 | 36.98191 | -111.73001 | 13409 ft | 168 kts | 99° |
| 2026-05-06 02:41 | 36.97936 | -111.71574 | 13409 ft | 168 kts | 100° |
| 2026-05-06 02:41 | 36.97681 | -111.70148 | 13408 ft | 168 kts | 100° |
| 2026-05-06 02:42 | 36.97427 | -111.68724 | 13410 ft | 168 kts | 100° |
| 2026-05-06 02:42 | 36.97171 | -111.67302 | 13409 ft | 168 kts | 99° |
| 2026-05-06 02:42 | 36.96916 | -111.65876 | 13409 ft | 168 kts | 99° |
| 2026-05-06 02:42 | 36.96660 | -111.64450 | 13409 ft | 168 kts | 99° |
| 2026-05-06 02:43 | 36.96405 | -111.63028 | 13404 ft | 168 kts | 100° |
| 2026-05-06 02:43 | 36.96150 | -111.61608 | 13406 ft | 167 kts | 100° |
| 2026-05-06 02:43 | 36.95895 | -111.60193 | 13406 ft | 167 kts | 99° |
| 2026-05-06 02:43 | 36.95640 | -111.58777 | 13403 ft | 167 kts | 99° |
| 2026-05-06 02:44 | 36.95385 | -111.57360 | 13406 ft | 167 kts | 99° |
| 2026-05-06 02:44 | 36.95129 | -111.55937 | 13490 ft | 168 kts | 99° |
| 2026-05-06 02:44 | 36.94872 | -111.54510 | 13495 ft | 168 kts | 100° |
| 2026-05-06 02:44 | 36.94616 | -111.53093 | 13492 ft | 168 kts | 98° |
| 2026-05-06 02:45 | 36.94360 | -111.51677 | 13491 ft | 167 kts | 99° |
| 2026-05-06 02:45 | 36.94107 | -111.50279 | 13494 ft | 166 kts | 100° |
| 2026-05-06 02:45 | 36.93849 | -111.48849 | 13492 ft | 167 kts | 100° |
| 2026-05-06 02:45 | 36.93596 | -111.47453 | 13492 ft | 167 kts | 99° |
| 2026-05-06 02:46 | 36.93340 | -111.46036 | 13493 ft | 168 kts | 98° |
| 2026-05-06 02:46 | 36.93214 | -111.44611 | 13471 ft | 163 kts | 76° |
| 2026-05-06 02:46 | 36.93617 | -111.43331 | 13483 ft | 157 kts | 60° |
| 2026-05-06 02:46 | 36.94074 | -111.42086 | 13485 ft | 158 kts | 62° |
| 2026-05-06 02:47 | 36.94528 | -111.40836 | 13486 ft | 159 kts | 60° |
| 2026-05-06 02:47 | 36.94985 | -111.39576 | 13488 ft | 159 kts | 62° |
| 2026-05-06 02:47 | 36.95442 | -111.38315 | 13489 ft | 159 kts | 60° |
| 2026-05-06 02:47 | 36.95899 | -111.37053 | 13491 ft | 160 kts | 60° |
| 2026-05-06 02:48 | 36.96359 | -111.35787 | 13491 ft | 159 kts | 61° |
| 2026-05-06 02:48 | 36.96809 | -111.34544 | 13489 ft | 159 kts | 60° |
| 2026-05-06 02:48 | 36.97265 | -111.33284 | 13486 ft | 159 kts | 61° |
| 2026-05-06 02:48 | 36.97722 | -111.32022 | 13481 ft | 159 kts | 60° |
| 2026-05-06 02:49 | 36.98180 | -111.30757 | 13478 ft | 159 kts | 60° |
| 2026-05-06 02:49 | 36.98637 | -111.29495 | 13472 ft | 159 kts | 61° |
| 2026-05-06 02:49 | 36.99095 | -111.28230 | 13468 ft | 159 kts | 60° |
| 2026-05-06 02:49 | 36.99551 | -111.26967 | 13465 ft | 159 kts | 61° |
| 2026-05-06 02:50 | 37.00008 | -111.25703 | 13454 ft | 159 kts | 62° |
| 2026-05-06 02:50 | 37.00465 | -111.24438 | 13453 ft | 159 kts | 62° |
| 2026-05-06 02:50 | 37.00915 | -111.23194 | 13448 ft | 159 kts | 61° |
| 2026-05-06 02:50 | 37.01370 | -111.21933 | 13443 ft | 159 kts | 60° |
| 2026-05-06 02:51 | 37.01826 | -111.20667 | 13439 ft | 160 kts | 61° |
| 2026-05-06 02:51 | 37.02282 | -111.19403 | 13434 ft | 159 kts | 60° |
| 2026-05-06 02:51 | 37.02738 | -111.18140 | 13430 ft | 159 kts | 62° |
| 2026-05-06 02:51 | 37.03190 | -111.16884 | 13420 ft | 158 kts | 62° |
| 2026-05-06 02:52 | 37.03635 | -111.15640 | 13403 ft | 155 kts | 62° |
| 2026-05-06 02:52 | 37.04080 | -111.14409 | 13398 ft | 156 kts | 60° |
| 2026-05-06 02:52 | 37.04531 | -111.13158 | 13390 ft | 159 kts | 61° |
| 2026-05-06 02:52 | 37.04991 | -111.11885 | 13390 ft | 162 kts | 60° |
| 2026-05-06 02:53 | 37.05455 | -111.10592 | 13389 ft | 163 kts | 60° |
| 2026-05-06 02:53 | 37.05922 | -111.09292 | 13392 ft | 165 kts | 61° |
| 2026-05-06 02:53 | 37.06395 | -111.07977 | 13390 ft | 166 kts | 61° |
| 2026-05-06 02:53 | 37.06868 | -111.06660 | 13382 ft | 165 kts | 61° |
| 2026-05-06 02:54 | 37.07333 | -111.05361 | 13375 ft | 166 kts | 60° |
| 2026-05-06 02:54 | 37.07806 | -111.04043 | 13373 ft | 166 kts | 61° |
| 2026-05-06 02:54 | 37.08282 | -111.02717 | 13370 ft | 168 kts | 61° |
| 2026-05-06 02:54 | 37.08760 | -111.01386 | 13369 ft | 167 kts | 60° |
| 2026-05-06 02:55 | 37.09234 | -111.00065 | 13384 ft | 166 kts | 61° |
| 2026-05-06 02:55 | 37.09708 | -110.98738 | 13383 ft | 167 kts | 61° |
| 2026-05-06 02:55 | 37.10181 | -110.97416 | 13378 ft | 165 kts | 61° |
| 2026-05-06 02:55 | 37.10652 | -110.96101 | 13381 ft | 166 kts | 61° |
| 2026-05-06 02:56 | 37.10966 | -110.95225 | 13378 ft | 166 kts | 61° |
| 2026-05-06 02:56 | 37.11439 | -110.93902 | 13379 ft | 166 kts | 61° |
| 2026-05-06 02:56 | 37.11913 | -110.92575 | 13379 ft | 167 kts | 61° |
| 2026-05-06 02:56 | 37.12387 | -110.91249 | 13381 ft | 167 kts | 61° |
| 2026-05-06 02:57 | 37.12863 | -110.89916 | 13382 ft | 167 kts | 61° |
| 2026-05-06 02:57 | 37.13337 | -110.88586 | 13381 ft | 167 kts | 61° |
| 2026-05-06 02:57 | 37.13810 | -110.87261 | 13384 ft | 167 kts | 61° |
| 2026-05-06 02:57 | 37.14284 | -110.85934 | 13386 ft | 167 kts | 61° |
| 2026-05-06 02:58 | 37.14757 | -110.84607 | 13382 ft | 166 kts | 61° |
| 2026-05-06 02:58 | 37.15230 | -110.83279 | 13363 ft | 167 kts | 61° |
| 2026-05-06 02:58 | 37.15704 | -110.81950 | 13366 ft | 167 kts | 61° |
| 2026-05-06 02:58 | 37.16175 | -110.80627 | 13380 ft | 167 kts | 61° |
| 2026-05-06 02:59 | 37.16648 | -110.79299 | 13368 ft | 168 kts | 59° |
| 2026-05-06 02:59 | 37.17127 | -110.77954 | 13369 ft | 168 kts | 60° |
| 2026-05-06 02:59 | 37.17600 | -110.76622 | 13362 ft | 166 kts | 60° |
| 2026-05-06 02:59 | 37.18061 | -110.75318 | 13358 ft | 162 kts | 60° |
| 2026-05-06 03:00 | 37.18523 | -110.74021 | 13356 ft | 164 kts | 56° |
| 2026-05-06 03:00 | 37.18981 | -110.72746 | 13357 ft | 158 kts | 58° |
| 2026-05-06 03:00 | 37.19428 | -110.71479 | 13362 ft | 158 kts | 57° |
| 2026-05-06 03:00 | 37.19870 | -110.70216 | 13354 ft | 155 kts | 57° |
| 2026-05-06 03:01 | 37.20310 | -110.68973 | 13358 ft | 157 kts | 58° |
| 2026-05-06 03:01 | 37.20761 | -110.67720 | 13362 ft | 158 kts | 59° |
| 2026-05-06 03:01 | 37.21206 | -110.66470 | 13358 ft | 156 kts | 58° |
| 2026-05-06 03:01 | 37.21647 | -110.65217 | 13362 ft | 158 kts | 56° |
| 2026-05-06 03:02 | 37.22093 | -110.63964 | 13367 ft | 159 kts | 57° |
| 2026-05-06 03:02 | 37.22543 | -110.62690 | 13366 ft | 160 kts | 59° |
| 2026-05-06 03:02 | 37.22994 | -110.61412 | 13368 ft | 161 kts | 58° |
| 2026-05-06 03:02 | 37.23452 | -110.60119 | 13369 ft | 162 kts | 58° |
| 2026-05-06 03:03 | 37.23907 | -110.58827 | 13371 ft | 162 kts | 60° |
| 2026-05-06 03:03 | 37.24366 | -110.57530 | 13368 ft | 163 kts | 58° |
| 2026-05-06 03:03 | 37.24817 | -110.56244 | 13361 ft | 161 kts | 58° |
| 2026-05-06 03:03 | 37.25273 | -110.54963 | 13358 ft | 162 kts | 57° |
| 2026-05-06 03:04 | 37.25729 | -110.53672 | 13362 ft | 161 kts | 59° |
| 2026-05-06 03:04 | 37.26184 | -110.52382 | 13362 ft | 162 kts | 57° |
| 2026-05-06 03:04 | 37.26646 | -110.51078 | 13351 ft | 164 kts | 59° |
| 2026-05-06 03:04 | 37.27093 | -110.49799 | 13362 ft | 157 kts | 58° |
| 2026-05-06 03:05 | 37.27540 | -110.48535 | 13355 ft | 159 kts | 59° |
| 2026-05-06 03:05 | 37.27992 | -110.47250 | 13364 ft | 162 kts | 57° |
| 2026-05-06 03:05 | 37.28445 | -110.45967 | 13377 ft | 159 kts | 59° |
| 2026-05-06 03:05 | 37.28888 | -110.44722 | 13359 ft | 156 kts | 58° |
| 2026-05-06 03:06 | 37.29320 | -110.43477 | 13349 ft | 154 kts | 57° |
| 2026-05-06 03:06 | 37.29751 | -110.42248 | 13356 ft | 154 kts | 61° |
| 2026-05-06 03:06 | 37.30184 | -110.41016 | 13356 ft | 155 kts | 59° |
| 2026-05-06 03:06 | 37.30620 | -110.39776 | 13357 ft | 155 kts | 60° |
| 2026-05-06 03:07 | 37.31052 | -110.38545 | 13356 ft | 154 kts | 58° |
| 2026-05-06 03:07 | 37.31486 | -110.37313 | 13357 ft | 154 kts | 58° |
| 2026-05-06 03:07 | 37.31919 | -110.36076 | 13359 ft | 155 kts | 60° |
| 2026-05-06 03:07 | 37.32349 | -110.34850 | 13362 ft | 155 kts | 58° |
| 2026-05-06 03:08 | 37.32785 | -110.33607 | 13374 ft | 156 kts | 59° |
| 2026-05-06 03:08 | 37.33221 | -110.32363 | 13374 ft | 155 kts | 60° |
| 2026-05-06 03:08 | 37.33661 | -110.31111 | 13352 ft | 158 kts | 61° |
| 2026-05-06 03:08 | 37.34108 | -110.29832 | 13350 ft | 160 kts | 62° |
| 2026-05-06 03:09 | 37.34557 | -110.28546 | 13356 ft | 161 kts | 61° |
| 2026-05-06 03:09 | 37.35010 | -110.27250 | 13358 ft | 162 kts | 62° |
| 2026-05-06 03:09 | 37.35464 | -110.25954 | 13360 ft | 162 kts | 62° |
| 2026-05-06 03:09 | 37.35920 | -110.24651 | 13361 ft | 163 kts | 62° |
| 2026-05-06 03:10 | 37.36375 | -110.23345 | 13362 ft | 163 kts | 63° |
| 2026-05-06 03:10 | 37.36832 | -110.22037 | 13363 ft | 164 kts | 62° |
| 2026-05-06 03:10 | 37.37291 | -110.20725 | 13365 ft | 164 kts | 61° |
| 2026-05-06 03:10 | 37.37746 | -110.19421 | 13372 ft | 164 kts | 61° |
| 2026-05-06 03:11 | 37.38205 | -110.18103 | 13374 ft | 165 kts | 63° |
| 2026-05-06 03:11 | 37.38667 | -110.16777 | 13378 ft | 165 kts | 62° |
| 2026-05-06 03:11 | 37.39130 | -110.15447 | 13374 ft | 166 kts | 63° |
| 2026-05-06 03:11 | 37.39594 | -110.14116 | 13376 ft | 166 kts | 63° |
| 2026-05-06 03:12 | 37.40058 | -110.12783 | 13373 ft | 166 kts | 62° |
| 2026-05-06 03:12 | 37.40518 | -110.11461 | 13375 ft | 165 kts | 61° |
| 2026-05-06 03:12 | 37.40976 | -110.10145 | 13376 ft | 164 kts | 61° |
| 2026-05-06 03:12 | 37.41433 | -110.08831 | 13374 ft | 164 kts | 63° |
| 2026-05-06 03:13 | 37.41888 | -110.07519 | 13375 ft | 163 kts | 62° |
| 2026-05-06 03:13 | 37.42344 | -110.06209 | 13376 ft | 163 kts | 62° |
| 2026-05-06 03:13 | 37.42798 | -110.04901 | 13376 ft | 163 kts | 63° |
| 2026-05-06 03:13 | 37.43250 | -110.03597 | 13375 ft | 163 kts | 63° |
| 2026-05-06 03:14 | 37.43704 | -110.02290 | 13372 ft | 163 kts | 62° |
| 2026-05-06 03:14 | 37.44156 | -110.00986 | 13369 ft | 162 kts | 63° |
| 2026-05-06 03:14 | 37.44601 | -109.99701 | 13371 ft | 162 kts | 61° |
| 2026-05-06 03:14 | 37.45052 | -109.98400 | 13375 ft | 162 kts | 61° |
| 2026-05-06 03:15 | 37.45504 | -109.97095 | 13369 ft | 162 kts | 62° |
| 2026-05-06 03:15 | 37.45955 | -109.95792 | 13370 ft | 162 kts | 62° |
| 2026-05-06 03:15 | 37.46405 | -109.94491 | 13372 ft | 162 kts | 62° |
| 2026-05-06 03:15 | 37.46855 | -109.93192 | 13370 ft | 162 kts | 61° |
| 2026-05-06 03:16 | 37.47306 | -109.91887 | 13370 ft | 162 kts | 62° |
| 2026-05-06 03:16 | 37.47756 | -109.90584 | 13369 ft | 162 kts | 63° |
| 2026-05-06 03:16 | 37.48199 | -109.89302 | 13368 ft | 162 kts | 62° |
| 2026-05-06 03:16 | 37.48647 | -109.88003 | 13369 ft | 161 kts | 62° |
| 2026-05-06 03:17 | 37.49096 | -109.86702 | 13367 ft | 162 kts | 63° |
| 2026-05-06 03:17 | 37.49544 | -109.85403 | 13370 ft | 162 kts | 63° |
| 2026-05-06 03:17 | 37.49992 | -109.84104 | 13369 ft | 162 kts | 62° |
| 2026-05-06 03:17 | 37.50441 | -109.82802 | 13368 ft | 162 kts | 63° |
| 2026-05-06 03:18 | 37.50888 | -109.81504 | 13372 ft | 161 kts | 62° |
| 2026-05-06 03:18 | 37.51335 | -109.80209 | 13370 ft | 161 kts | 62° |
| 2026-05-06 03:18 | 37.51780 | -109.78917 | 13382 ft | 161 kts | 63° |
| 2026-05-06 03:18 | 37.52223 | -109.77627 | 13382 ft | 160 kts | 63° |
| 2026-05-06 03:19 | 37.52658 | -109.76361 | 13385 ft | 160 kts | 63° |
| 2026-05-06 03:19 | 37.53099 | -109.75078 | 13383 ft | 160 kts | 62° |
| 2026-05-06 03:19 | 37.53540 | -109.73794 | 13383 ft | 159 kts | 63° |
| 2026-05-06 03:19 | 37.53979 | -109.72517 | 13386 ft | 159 kts | 62° |
| 2026-05-06 03:20 | 37.54860 | -109.69950 | 13382 ft | 159 kts | 63° |
| 2026-05-06 03:20 | 37.55301 | -109.68666 | 13511 ft | 159 kts | 63° |
| 2026-05-06 03:20 | 37.55739 | -109.67388 | 13521 ft | 159 kts | 63° |
| 2026-05-06 03:21 | 37.56175 | -109.66115 | 13527 ft | 159 kts | 62° |
| 2026-05-06 03:21 | 37.56613 | -109.64836 | 13538 ft | 158 kts | 63° |
| 2026-05-06 03:21 | 37.57049 | -109.63562 | 13542 ft | 158 kts | 63° |
| 2026-05-06 03:21 | 37.57485 | -109.62289 | 13546 ft | 158 kts | 62° |
| 2026-05-06 03:22 | 37.57920 | -109.61017 | 13547 ft | 158 kts | 63° |
| 2026-05-06 03:22 | 37.58357 | -109.59741 | 13560 ft | 159 kts | 63° |
| 2026-05-06 03:22 | 37.58793 | -109.58463 | 13558 ft | 159 kts | 63° |
| 2026-05-06 03:22 | 37.59231 | -109.57183 | 13558 ft | 159 kts | 62° |
| 2026-05-06 03:23 | 37.59670 | -109.55897 | 13560 ft | 159 kts | 63° |
| 2026-05-06 03:23 | 37.60101 | -109.54633 | 13564 ft | 159 kts | 63° |
| 2026-05-06 03:23 | 37.60539 | -109.53350 | 13561 ft | 159 kts | 63° |
| 2026-05-06 03:23 | 37.60977 | -109.52068 | 13562 ft | 159 kts | 63° |
| 2026-05-06 03:24 | 37.61413 | -109.50788 | 13560 ft | 158 kts | 63° |
| 2026-05-06 03:24 | 37.61848 | -109.49512 | 13559 ft | 158 kts | 63° |
| 2026-05-06 03:24 | 37.62282 | -109.48236 | 13558 ft | 158 kts | 63° |
| 2026-05-06 03:24 | 37.62719 | -109.46956 | 13558 ft | 159 kts | 63° |
| 2026-05-06 03:25 | 37.63154 | -109.45677 | 13555 ft | 159 kts | 65° |
| 2026-05-06 03:25 | 37.63593 | -109.44386 | 13554 ft | 161 kts | 65° |
| 2026-05-06 03:25 | 37.64037 | -109.43081 | 13557 ft | 162 kts | 63° |
| 2026-05-06 03:25 | 37.64482 | -109.41773 | 13559 ft | 162 kts | 65° |
| 2026-05-06 03:26 | 37.64927 | -109.40462 | 13561 ft | 163 kts | 64° |
| 2026-05-06 03:26 | 37.65374 | -109.39143 | 13562 ft | 163 kts | 63° |
| 2026-05-06 03:26 | 37.65821 | -109.37827 | 13558 ft | 164 kts | 63° |
| 2026-05-06 03:26 | 37.66270 | -109.36506 | 13553 ft | 164 kts | 64° |
| 2026-05-06 03:27 | 37.66712 | -109.35202 | 13546 ft | 164 kts | 64° |
| 2026-05-06 03:27 | 37.67162 | -109.33873 | 13536 ft | 165 kts | 65° |
| 2026-05-06 03:27 | 37.67613 | -109.32541 | 13533 ft | 165 kts | 65° |
| 2026-05-06 03:27 | 37.68063 | -109.31212 | 13521 ft | 165 kts | 64° |
| 2026-05-06 03:28 | 37.68514 | -109.29881 | 13512 ft | 165 kts | 64° |
| 2026-05-06 03:28 | 37.68967 | -109.28543 | 13506 ft | 165 kts | 64° |
| 2026-05-06 03:28 | 37.69417 | -109.27213 | 13501 ft | 164 kts | 65° |
| 2026-05-06 03:28 | 37.69866 | -109.25886 | 13492 ft | 164 kts | 65° |
| 2026-05-06 03:29 | 37.70310 | -109.24573 | 13480 ft | 165 kts | 64° |
| 2026-05-06 03:29 | 37.70758 | -109.23242 | 13474 ft | 165 kts | 65° |
| 2026-05-06 03:29 | 37.71207 | -109.21913 | 13463 ft | 164 kts | 63° |
| 2026-05-06 03:29 | 37.71655 | -109.20586 | 13453 ft | 164 kts | 63° |
| 2026-05-06 03:30 | 37.72103 | -109.19258 | 13449 ft | 165 kts | 64° |
| 2026-05-06 03:30 | 37.72552 | -109.17927 | 13445 ft | 165 kts | 64° |
| 2026-05-06 03:30 | 37.73001 | -109.16594 | 13436 ft | 165 kts | 63° |
| 2026-05-06 03:30 | 37.73446 | -109.15272 | 13486 ft | 162 kts | 64° |
| 2026-05-06 03:31 | 37.73884 | -109.13974 | 13475 ft | 163 kts | 65° |
| 2026-05-06 03:31 | 37.74327 | -109.12657 | 13470 ft | 163 kts | 65° |
| 2026-05-06 03:31 | 37.74771 | -109.11335 | 13465 ft | 164 kts | 65° |
| 2026-05-06 03:31 | 37.75219 | -109.10004 | 13453 ft | 165 kts | 65° |
| 2026-05-06 03:32 | 37.75670 | -109.08663 | 13450 ft | 166 kts | 65° |
| 2026-05-06 03:32 | 37.76120 | -109.07319 | 13448 ft | 165 kts | 65° |
| 2026-05-06 03:32 | 37.76580 | -109.05982 | 13448 ft | 166 kts | 64° |
| 2026-05-06 03:32 | 37.77048 | -109.04644 | 13450 ft | 166 kts | 65° |
| 2026-05-06 03:33 | 37.77506 | -109.03316 | 13445 ft | 165 kts | 65° |
| 2026-05-06 03:33 | 37.77969 | -109.01984 | 13444 ft | 166 kts | 64° |
| 2026-05-06 03:33 | 37.78433 | -109.00645 | 13446 ft | 166 kts | 65° |
| 2026-05-06 03:33 | 37.78893 | -108.99315 | 13400 ft | 170 kts | 65° |
| 2026-05-06 03:34 | 37.79375 | -108.97919 | 13280 ft | 176 kts | 65° |
| 2026-05-06 03:34 | 37.79870 | -108.96484 | 13170 ft | 180 kts | 65° |
| 2026-05-06 03:34 | 37.80375 | -108.95022 | 13056 ft | 182 kts | 65° |
| 2026-05-06 03:34 | 37.80883 | -108.93547 | 12960 ft | 182 kts | 65° |
| 2026-05-06 03:35 | 37.81382 | -108.92099 | 12960 ft | 178 kts | 65° |
| 2026-05-06 03:35 | 37.81873 | -108.90675 | 12955 ft | 175 kts | 65° |
| 2026-05-06 03:35 | 37.82358 | -108.89269 | 12949 ft | 173 kts | 65° |
| 2026-05-06 03:35 | 37.82837 | -108.87878 | 12948 ft | 172 kts | 65° |
| 2026-05-06 03:36 | 37.83312 | -108.86496 | 12951 ft | 171 kts | 65° |
| 2026-05-06 03:36 | 37.83780 | -108.85136 | 12948 ft | 170 kts | 65° |
| 2026-05-06 03:36 | 37.84251 | -108.83767 | 12950 ft | 169 kts | 65° |
| 2026-05-06 03:36 | 37.84721 | -108.82399 | 12953 ft | 169 kts | 65° |
| 2026-05-06 03:37 | 37.85187 | -108.81042 | 12960 ft | 166 kts | 66° |
| 2026-05-06 03:37 | 37.85650 | -108.79693 | 12961 ft | 169 kts | 65° |
| 2026-05-06 03:37 | 37.86121 | -108.78322 | 12959 ft | 169 kts | 65° |
| 2026-05-06 03:37 | 37.86590 | -108.76953 | 12958 ft | 170 kts | 66° |
| 2026-05-06 03:38 | 37.87060 | -108.75582 | 12958 ft | 170 kts | 65° |
| 2026-05-06 03:38 | 37.87525 | -108.74227 | 12950 ft | 170 kts | 66° |
| 2026-05-06 03:38 | 37.87995 | -108.72853 | 12948 ft | 170 kts | 65° |
| 2026-05-06 03:38 | 37.88465 | -108.71481 | 12950 ft | 170 kts | 65° |
| 2026-05-06 03:39 | 37.88936 | -108.70105 | 12951 ft | 170 kts | 65° |
| 2026-05-06 03:39 | 37.89406 | -108.68729 | 12950 ft | 170 kts | 65° |
| 2026-05-06 03:39 | 37.89876 | -108.67358 | 12950 ft | 170 kts | 65° |
| 2026-05-06 03:39 | 37.90356 | -108.65953 | 12838 ft | 177 kts | 65° |
| 2026-05-06 03:40 | 37.90850 | -108.64505 | 12732 ft | 181 kts | 65° |
| 2026-05-06 03:40 | 37.91345 | -108.63056 | 12716 ft | 178 kts | 65° |
| 2026-05-06 03:40 | 37.91835 | -108.61619 | 12717 ft | 177 kts | 65° |
| 2026-05-06 03:40 | 37.92321 | -108.60194 | 12712 ft | 175 kts | 65° |
| 2026-05-06 03:41 | 37.92801 | -108.58786 | 12705 ft | 174 kts | 65° |
| 2026-05-06 03:41 | 37.93280 | -108.57379 | 12704 ft | 174 kts | 66° |
| 2026-05-06 03:41 | 37.93760 | -108.55971 | 12709 ft | 174 kts | 66° |
| 2026-05-06 03:41 | 37.94239 | -108.54564 | 12710 ft | 173 kts | 66° |
| 2026-05-06 03:42 | 37.94717 | -108.53159 | 12711 ft | 174 kts | 66° |
| 2026-05-06 03:42 | 37.95195 | -108.51755 | 12716 ft | 173 kts | 66° |
| 2026-05-06 03:42 | 37.95671 | -108.50353 | 12711 ft | 173 kts | 66° |
| 2026-05-06 03:42 | 37.96139 | -108.48976 | 12715 ft | 171 kts | 65° |
| 2026-05-06 03:43 | 37.96607 | -108.47598 | 12716 ft | 171 kts | 65° |
| 2026-05-06 03:43 | 37.97077 | -108.46214 | 12716 ft | 171 kts | 65° |
| 2026-05-06 03:43 | 37.97549 | -108.44828 | 12716 ft | 171 kts | 65° |
| 2026-05-06 03:43 | 37.98025 | -108.43441 | 12719 ft | 172 kts | 65° |
| 2026-05-06 03:44 | 37.98504 | -108.42044 | 12729 ft | 173 kts | 65° |
| 2026-05-06 03:44 | 37.98828 | -108.41099 | 12727 ft | 173 kts | 65° |
| 2026-05-06 03:44 | 37.99297 | -108.39726 | 12773 ft | 169 kts | 65° |
| 2026-05-06 03:44 | 37.99936 | -108.37858 | 12725 ft | 174 kts | 65° |
| 2026-05-06 03:45 | 38.00255 | -108.36924 | 12729 ft | 174 kts | 65° |
| 2026-05-06 03:45 | 38.00737 | -108.35511 | 12729 ft | 174 kts | 65° |
| 2026-05-06 03:45 | 38.01219 | -108.34098 | 12727 ft | 174 kts | 65° |
| 2026-05-06 03:45 | 38.01702 | -108.32684 | 12729 ft | 175 kts | 65° |
| 2026-05-06 03:46 | 38.02178 | -108.31280 | 12728 ft | 171 kts | 65° |
| 2026-05-06 03:46 | 38.02653 | -108.29890 | 12723 ft | 172 kts | 65° |
| 2026-05-06 03:46 | 38.03131 | -108.28492 | 12725 ft | 173 kts | 65° |
| 2026-05-06 03:46 | 38.03610 | -108.27085 | 12728 ft | 174 kts | 65° |
| 2026-05-06 03:47 | 38.03866 | -108.25608 | 12697 ft | 173 kts | 97° |
| 2026-05-06 03:47 | 38.03522 | -108.24177 | 12713 ft | 169 kts | 115° |
| 2026-05-06 03:47 | 38.03092 | -108.22801 | 12717 ft | 170 kts | 115° |
| 2026-05-06 03:47 | 38.02661 | -108.21401 | 12686 ft | 172 kts | 115° |
| 2026-05-06 03:48 | 38.02217 | -108.19961 | 12623 ft | 178 kts | 114° |
| 2026-05-06 03:48 | 38.01774 | -108.18506 | 12632 ft | 176 kts | 114° |
| 2026-05-06 03:48 | 38.01336 | -108.17074 | 12621 ft | 172 kts | 114° |
| 2026-05-06 03:48 | 38.00903 | -108.15666 | 12629 ft | 170 kts | 114° |
| 2026-05-06 03:49 | 38.00475 | -108.14276 | 12634 ft | 169 kts | 115° |
| 2026-05-06 03:49 | 38.00051 | -108.12888 | 12633 ft | 169 kts | 114° |
| 2026-05-06 03:49 | 37.99711 | -108.11455 | 12572 ft | 172 kts | 106° |
| 2026-05-06 03:49 | 37.99396 | -108.09962 | 12411 ft | 177 kts | 108° |
| 2026-05-06 03:50 | 37.99074 | -108.08462 | 12237 ft | 177 kts | 107° |
| 2026-05-06 03:50 | 37.98765 | -108.06986 | 12054 ft | 170 kts | 107° |
| 2026-05-06 03:50 | 37.98484 | -108.05626 | 11843 ft | 153 kts | 108° |
| 2026-05-06 03:50 | 37.98216 | -108.04348 | 11610 ft | 149 kts | 108° |
| 2026-05-06 03:51 | 37.97951 | -108.03077 | 11260 ft | 150 kts | 107° |
| 2026-05-06 03:51 | 37.97668 | -108.01770 | 10936 ft | 154 kts | 109° |
| 2026-05-06 03:51 | 37.97394 | -108.00460 | 10546 ft | 151 kts | 107° |
| 2026-05-06 03:51 | 37.97145 | -107.99214 | 10228 ft | 141 kts | 106° |
| 2026-05-06 03:52 | 37.96908 | -107.98045 | 9908 ft | 132 kts | 106° |
| 2026-05-06 03:52 | 37.96666 | -107.96961 | 9913 ft | 125 kts | 110° |
| 2026-05-06 03:52 | 37.96431 | -107.95902 | 9784 ft | 126 kts | 107° |
| 2026-05-06 03:52 | 37.96205 | -107.94837 | 9694 ft | 126 kts | 108° |
| 2026-05-06 03:53 | 37.95987 | -107.93770 | 9546 ft | 127 kts | 104° |
| 2026-05-06 03:53 | 37.95760 | -107.92694 | 9239 ft | 122 kts | 105° |
| 2026-05-06 03:53 | 37.95554 | -107.91717 | 9037 ft | 103 kts | 104° |
| 2026-05-06 03:53 | 37.95402 | -107.90973 | 9023 ft | 72 kts | 104° |
| 2026-05-06 03:54 | 37.95308 | -107.90523 | 9038 ft | 32 kts | 104° |
| 2026-05-06 03:54 | 37.95259 | -107.90293 | 9044 ft | 25 kts | 104° |
| 2026-05-06 03:54 | 37.95240 | -107.90160 | 9049 ft | 10 kts | 71° |
| 2026-05-06 03:54 | 37.95290 | -107.90126 | 9053 ft | 9 kts | 15° |
| 2026-05-06 03:55 | 37.95339 | -107.90134 | 9053 ft | 7 kts | 288° |
| 2026-05-06 03:55 | 37.95353 | -107.90201 | 9053 ft | 9 kts | 283° |
| 2026-05-06 03:55 | 37.95380 | -107.90264 | 9053 ft | 8 kts | 4° |
| 2026-05-06 03:55 | 37.95438 | -107.90244 | 9053 ft | 8 kts | 15° |
| 2026-05-06 03:56 | 37.95470 | -107.90265 | 9053 ft | 2 kts | 280° |
| 2026-05-06 03:56 | 37.95471 | -107.90270 | 9053 ft | 0 kts | 281° |